sensor_id;sensor_type;location;lat;lon;timestamp;pressure;altitude;pressure_sealevel;temperature;humidity
30730;BME280;17476;48.458;7.928;2023-11-18T00:00:29;100958.16;;;8.23;100.00
30730;BME280;17476;48.458;7.928;2023-11-18T00:02:55;100955.97;;;8.07;100.00
30730;BME280;17476;48.458;7.928;2023-11-18T00:05:21;100950.00;;;8.16;100.00
30730;BME280;17476;48.458;7.928;2023-11-18T00:07:47;100951.69;;;8.06;100.00
30730;BME280;17476;48.458;7.928;2023-11-18T00:10:12;100945.09;;;7.90;100.00
30730;BME280;17476;48.458;7.928;2023-11-18T00:12:38;100948.28;;;7.94;100.00
30730;BME280;17476;48.458;7.928;2023-11-18T00:15:08;100948.03;;;7.97;100.00
30730;BME280;17476;48.458;7.928;2023-11-18T00:17:37;100948.53;;;7.91;100.00
30730;BME280;17476;48.458;7.928;2023-11-18T00:20:03;100947.34;;;7.84;100.00
30730;BME280;17476;48.458;7.928;2023-11-18T00:22:35;100950.69;;;7.86;100.00
30730;BME280;17476;48.458;7.928;2023-11-18T00:25:02;100954.81;;;7.77;100.00
30730;BME280;17476;48.458;7.928;2023-11-18T00:27:31;100966.53;;;7.83;100.00
30730;BME280;17476;48.458;7.928;2023-11-18T00:29:57;100956.81;;;7.85;100.00
30730;BME280;17476;48.458;7.928;2023-11-18T00:32:22;100951.53;;;7.75;100.00
30730;BME280;17476;48.458;7.928;2023-11-18T00:34:48;100951.16;;;7.80;100.00
30730;BME280;17476;48.458;7.928;2023-11-18T00:37:14;100945.84;;;7.81;100.00
30730;BME280;17476;48.458;7.928;2023-11-18T00:39:40;100946.53;;;7.83;100.00
30730;BME280;17476;48.458;7.928;2023-11-18T00:42:05;100952.94;;;7.79;100.00
30730;BME280;17476;48.458;7.928;2023-11-18T00:44:31;100959.81;;;7.80;100.00
30730;BME280;17476;48.458;7.928;2023-11-18T00:46:57;100956.25;;;7.81;100.00
30730;BME280;17476;48.458;7.928;2023-11-18T00:49:23;100951.16;;;7.80;100.00
30730;BME280;17476;48.458;7.928;2023-11-18T00:51:49;100941.56;;;7.80;100.00
30730;BME280;17476;48.458;7.928;2023-11-18T00:54:15;100939.94;;;7.79;100.00
30730;BME280;17476;48.458;7.928;2023-11-18T00:56:41;100944.78;;;7.50;100.00
30730;BME280;17476;48.458;7.928;2023-11-18T00:59:06;100939.34;;;7.53;100.00
30730;BME280;17476;48.458;7.928;2023-11-18T01:01:32;100933.56;;;7.61;100.00
30730;BME280;17476;48.458;7.928;2023-11-18T01:03:58;100931.41;;;7.55;100.00
30730;BME280;17476;48.458;7.928;2023-11-18T01:06:26;100942.88;;;7.63;100.00
30730;BME280;17476;48.458;7.928;2023-11-18T01:08:52;100943.75;;;7.53;100.00
30730;BME280;17476;48.458;7.928;2023-11-18T01:11:19;100940.78;;;7.35;100.00
30730;BME280;17476;48.458;7.928;2023-11-18T01:13:46;100945.03;;;7.47;100.00
30730;BME280;17476;48.458;7.928;2023-11-18T01:16:12;100946.69;;;7.48;100.00
30730;BME280;17476;48.458;7.928;2023-11-18T01:18:41;100952.47;;;7.52;100.00
30730;BME280;17476;48.458;7.928;2023-11-18T01:21:07;100951.16;;;7.57;100.00
30730;BME280;17476;48.458;7.928;2023-11-18T01:23:37;100954.25;;;7.51;100.00
30730;BME280;17476;48.458;7.928;2023-11-18T01:26:05;100948.13;;;7.52;100.00
30730;BME280;17476;48.458;7.928;2023-11-18T01:28:33;100951.63;;;7.51;100.00
30730;BME280;17476;48.458;7.928;2023-11-18T01:31:03;100949.53;;;7.45;100.00
30730;BME280;17476;48.458;7.928;2023-11-18T01:33:30;100939.81;;;7.58;100.00
30730;BME280;17476;48.458;7.928;2023-11-18T01:35:58;100936.63;;;7.55;100.00
30730;BME280;17476;48.458;7.928;2023-11-18T01:38:24;100936.38;;;7.58;100.00
30730;BME280;17476;48.458;7.928;2023-11-18T01:40:52;100935.69;;;7.56;100.00
30730;BME280;17476;48.458;7.928;2023-11-18T01:43:19;100929.66;;;7.66;100.00
30730;BME280;17476;48.458;7.928;2023-11-18T01:45:46;100933.91;;;7.56;100.00
30730;BME280;17476;48.458;7.928;2023-11-18T01:48:12;100928.72;;;7.45;100.00
30730;BME280;17476;48.458;7.928;2023-11-18T01:50:41;100942.53;;;7.34;100.00
30730;BME280;17476;48.458;7.928;2023-11-18T01:53:08;100943.69;;;7.08;100.00
30730;BME280;17476;48.458;7.928;2023-11-18T01:55:35;100943.47;;;7.11;100.00
30730;BME280;17476;48.458;7.928;2023-11-18T01:58:02;100940.19;;;7.20;100.00
30730;BME280;17476;48.458;7.928;2023-11-18T02:00:37;100938.03;;;7.36;100.00
30730;BME280;17476;48.458;7.928;2023-11-18T02:03:05;100931.66;;;7.29;100.00
30730;BME280;17476;48.458;7.928;2023-11-18T02:05:32;100934.28;;;7.18;100.00
30730;BME280;17476;48.458;7.928;2023-11-18T02:08:01;100943.34;;;7.24;100.00
30730;BME280;17476;48.458;7.928;2023-11-18T02:10:31;100938.28;;;7.33;100.00
30730;BME280;17476;48.458;7.928;2023-11-18T02:13:16;100935.22;;;7.28;100.00
30730;BME280;17476;48.458;7.928;2023-11-18T02:15:45;100941.47;;;7.26;100.00
30730;BME280;17476;48.458;7.928;2023-11-18T02:18:12;100949.25;;;7.03;100.00
30730;BME280;17476;48.458;7.928;2023-11-18T02:20:39;100954.47;;;7.15;100.00
30730;BME280;17476;48.458;7.928;2023-11-18T02:23:05;100964.38;;;7.09;100.00
30730;BME280;17476;48.458;7.928;2023-11-18T02:25:33;100966.50;;;6.93;100.00
30730;BME280;17476;48.458;7.928;2023-11-18T02:28:00;100949.13;;;6.94;100.00
30730;BME280;17476;48.458;7.928;2023-11-18T02:30:26;100957.28;;;7.00;100.00
30730;BME280;17476;48.458;7.928;2023-11-18T02:33:18;100953.25;;;6.96;100.00
30730;BME280;17476;48.458;7.928;2023-11-18T02:36:01;100953.09;;;6.75;100.00
30730;BME280;17476;48.458;7.928;2023-11-18T02:38:35;100947.91;;;6.87;100.00
30730;BME280;17476;48.458;7.928;2023-11-18T02:41:08;100948.88;;;6.97;100.00
30730;BME280;17476;48.458;7.928;2023-11-18T02:43:36;100948.25;;;6.82;100.00
30730;BME280;17476;48.458;7.928;2023-11-18T02:46:04;100944.22;;;6.67;100.00
30730;BME280;17476;48.458;7.928;2023-11-18T02:48:32;100944.25;;;6.78;100.00
30730;BME280;17476;48.458;7.928;2023-11-18T02:50:59;100949.34;;;6.55;100.00
30730;BME280;17476;48.458;7.928;2023-11-18T02:53:25;100944.69;;;6.72;100.00
30730;BME280;17476;48.458;7.928;2023-11-18T02:55:51;100939.69;;;6.57;100.00
30730;BME280;17476;48.458;7.928;2023-11-18T02:58:20;100936.34;;;6.44;100.00
30730;BME280;17476;48.458;7.928;2023-11-18T03:00:46;100934.72;;;6.54;100.00
30730;BME280;17476;48.458;7.928;2023-11-18T03:03:12;100936.44;;;6.43;100.00
30730;BME280;17476;48.458;7.928;2023-11-18T03:05:39;100928.81;;;6.52;100.00
30730;BME280;17476;48.458;7.928;2023-11-18T03:08:05;100924.44;;;6.53;100.00
30730;BME280;17476;48.458;7.928;2023-11-18T03:10:33;100924.19;;;6.45;100.00
30730;BME280;17476;48.458;7.928;2023-11-18T03:13:01;100925.13;;;6.55;100.00
30730;BME280;17476;48.458;7.928;2023-11-18T03:15:28;100928.47;;;6.57;100.00
30730;BME280;17476;48.458;7.928;2023-11-18T03:17:57;100930.16;;;6.34;100.00
30730;BME280;17476;48.458;7.928;2023-11-18T03:20:23;100935.13;;;6.13;100.00
30730;BME280;17476;48.458;7.928;2023-11-18T03:22:50;100938.50;;;6.26;100.00
30730;BME280;17476;48.458;7.928;2023-11-18T03:25:19;100943.47;;;6.29;100.00
30730;BME280;17476;48.458;7.928;2023-11-18T03:27:48;100950.88;;;6.23;100.00
30730;BME280;17476;48.458;7.928;2023-11-18T03:30:13;100949.38;;;6.32;100.00
30730;BME280;17476;48.458;7.928;2023-11-18T03:32:40;100954.16;;;6.38;100.00
30730;BME280;17476;48.458;7.928;2023-11-18T03:35:07;100958.22;;;6.29;100.00
30730;BME280;17476;48.458;7.928;2023-11-18T03:37:38;100956.19;;;6.21;100.00
30730;BME280;17476;48.458;7.928;2023-11-18T03:40:11;100957.34;;;6.17;100.00
30730;BME280;17476;48.458;7.928;2023-11-18T03:42:38;100952.63;;;6.22;100.00
30730;BME280;17476;48.458;7.928;2023-11-18T03:45:04;100941.81;;;6.28;100.00
30730;BME280;17476;48.458;7.928;2023-11-18T03:47:30;100944.19;;;6.32;100.00
30730;BME280;17476;48.458;7.928;2023-11-18T03:49:57;100941.91;;;6.27;100.00
30730;BME280;17476;48.458;7.928;2023-11-18T03:52:23;100939.03;;;6.43;100.00
30730;BME280;17476;48.458;7.928;2023-11-18T03:54:49;100938.50;;;6.50;100.00
30730;BME280;17476;48.458;7.928;2023-11-18T03:57:15;100946.00;;;6.42;100.00
30730;BME280;17476;48.458;7.928;2023-11-18T03:59:41;100943.69;;;6.26;100.00
30730;BME280;17476;48.458;7.928;2023-11-18T04:02:10;100949.38;;;6.32;100.00
30730;BME280;17476;48.458;7.928;2023-11-18T04:04:37;100950.78;;;6.24;100.00
30730;BME280;17476;48.458;7.928;2023-11-18T04:07:03;100963.72;;;6.00;100.00
30730;BME280;17476;48.458;7.928;2023-11-18T04:09:30;100964.53;;;6.14;100.00
30730;BME280;17476;48.458;7.928;2023-11-18T04:11:56;100968.34;;;6.21;100.00
30730;BME280;17476;48.458;7.928;2023-11-18T04:14:22;100967.94;;;6.14;100.00
30730;BME280;17476;48.458;7.928;2023-11-18T04:16:51;100964.00;;;6.09;100.00
30730;BME280;17476;48.458;7.928;2023-11-18T04:19:17;100960.66;;;6.19;100.00
30730;BME280;17476;48.458;7.928;2023-11-18T04:21:42;100973.97;;;6.15;100.00
30730;BME280;17476;48.458;7.928;2023-11-18T04:24:13;100968.56;;;6.18;100.00
30730;BME280;17476;48.458;7.928;2023-11-18T04:26:39;100970.78;;;6.11;100.00
30730;BME280;17476;48.458;7.928;2023-11-18T04:29:04;100969.59;;;5.91;100.00
30730;BME280;17476;48.458;7.928;2023-11-18T04:31:30;100967.38;;;5.98;100.00
30730;BME280;17476;48.458;7.928;2023-11-18T04:33:56;100955.53;;;5.94;100.00
30730;BME280;17476;48.458;7.928;2023-11-18T04:36:22;100949.34;;;5.84;100.00
30730;BME280;17476;48.458;7.928;2023-11-18T04:38:48;100948.00;;;5.91;100.00
30730;BME280;17476;48.458;7.928;2023-11-18T04:41:15;100945.41;;;5.78;100.00
30730;BME280;17476;48.458;7.928;2023-11-18T04:43:40;100931.06;;;5.72;100.00
30730;BME280;17476;48.458;7.928;2023-11-18T04:46:07;100921.34;;;5.63;100.00
30730;BME280;17476;48.458;7.928;2023-11-18T04:48:34;100929.81;;;5.78;100.00
30730;BME280;17476;48.458;7.928;2023-11-18T04:51:00;100923.84;;;5.65;100.00
30730;BME280;17476;48.458;7.928;2023-11-18T04:53:26;100922.78;;;5.67;100.00
30730;BME280;17476;48.458;7.928;2023-11-18T04:55:52;100925.50;;;5.66;100.00
30730;BME280;17476;48.458;7.928;2023-11-18T04:58:18;100917.56;;;5.80;100.00
30730;BME280;17476;48.458;7.928;2023-11-18T05:00:45;100920.00;;;5.70;100.00
30730;BME280;17476;48.458;7.928;2023-11-18T05:03:10;100916.03;;;5.78;100.00
30730;BME280;17476;48.458;7.928;2023-11-18T05:05:37;100912.63;;;5.64;100.00
30730;BME280;17476;48.458;7.928;2023-11-18T05:08:06;100918.41;;;5.68;100.00
30730;BME280;17476;48.458;7.928;2023-11-18T05:10:34;100921.25;;;5.65;100.00
30730;BME280;17476;48.458;7.928;2023-11-18T05:13:01;100928.75;;;5.81;100.00
30730;BME280;17476;48.458;7.928;2023-11-18T05:15:26;100921.72;;;5.83;100.00
30730;BME280;17476;48.458;7.928;2023-11-18T05:17:53;100922.94;;;5.90;100.00
30730;BME280;17476;48.458;7.928;2023-11-18T05:20:21;100927.94;;;5.80;100.00
30730;BME280;17476;48.458;7.928;2023-11-18T05:22:47;100934.94;;;5.67;100.00
30730;BME280;17476;48.458;7.928;2023-11-18T05:25:13;100922.66;;;5.69;100.00
30730;BME280;17476;48.458;7.928;2023-11-18T05:27:39;100931.22;;;5.58;100.00
30730;BME280;17476;48.458;7.928;2023-11-18T05:30:08;100919.31;;;5.56;100.00
30730;BME280;17476;48.458;7.928;2023-11-18T05:32:34;100913.88;;;5.59;100.00
30730;BME280;17476;48.458;7.928;2023-11-18T05:35:01;100903.22;;;5.51;100.00
30730;BME280;17476;48.458;7.928;2023-11-18T05:37:27;100908.25;;;5.65;100.00
30730;BME280;17476;48.458;7.928;2023-11-18T05:39:55;100904.97;;;5.63;100.00
30730;BME280;17476;48.458;7.928;2023-11-18T05:42:34;100906.38;;;5.67;100.00
30730;BME280;17476;48.458;7.928;2023-11-18T05:45:06;100912.53;;;5.53;100.00
30730;BME280;17476;48.458;7.928;2023-11-18T05:47:35;100901.16;;;5.43;100.00
30730;BME280;17476;48.458;7.928;2023-11-18T05:50:01;100905.47;;;5.55;100.00
30730;BME280;17476;48.458;7.928;2023-11-18T05:52:27;100906.31;;;5.56;100.00
30730;BME280;17476;48.458;7.928;2023-11-18T05:54:52;100902.88;;;5.55;100.00
30730;BME280;17476;48.458;7.928;2023-11-18T05:57:19;100894.91;;;5.58;100.00
30730;BME280;17476;48.458;7.928;2023-11-18T05:59:45;100899.56;;;5.53;100.00
30730;BME280;17476;48.458;7.928;2023-11-18T06:02:17;100901.19;;;5.67;100.00
30730;BME280;17476;48.458;7.928;2023-11-18T06:04:45;100907.63;;;5.61;100.00
30730;BME280;17476;48.458;7.928;2023-11-18T06:07:11;100906.00;;;5.47;100.00
30730;BME280;17476;48.458;7.928;2023-11-18T06:09:40;100897.50;;;5.45;100.00
30730;BME280;17476;48.458;7.928;2023-11-18T06:12:08;100908.81;;;5.57;100.00
30730;BME280;17476;48.458;7.928;2023-11-18T06:14:39;100909.56;;;5.34;100.00
30730;BME280;17476;48.458;7.928;2023-11-18T06:17:07;100910.25;;;5.48;100.00
30730;BME280;17476;48.458;7.928;2023-11-18T06:19:34;100904.72;;;5.66;100.00
30730;BME280;17476;48.458;7.928;2023-11-18T06:22:00;100905.81;;;5.51;100.00
30730;BME280;17476;48.458;7.928;2023-11-18T06:24:26;100908.59;;;5.47;100.00
30730;BME280;17476;48.458;7.928;2023-11-18T06:26:51;100911.72;;;5.53;100.00
30730;BME280;17476;48.458;7.928;2023-11-18T06:29:17;100915.34;;;5.63;100.00
30730;BME280;17476;48.458;7.928;2023-11-18T06:31:44;100916.44;;;5.71;100.00
30730;BME280;17476;48.458;7.928;2023-11-18T06:34:09;100916.66;;;5.68;100.00
30730;BME280;17476;48.458;7.928;2023-11-18T06:36:35;100906.91;;;5.72;100.00
30730;BME280;17476;48.458;7.928;2023-11-18T06:39:01;100906.03;;;5.84;100.00
30730;BME280;17476;48.458;7.928;2023-11-18T06:41:27;100910.88;;;5.89;100.00
30730;BME280;17476;48.458;7.928;2023-11-18T06:43:59;100906.34;;;5.80;100.00
30730;BME280;17476;48.458;7.928;2023-11-18T06:46:32;100902.25;;;5.88;100.00
30730;BME280;17476;48.458;7.928;2023-11-18T06:49:00;100898.38;;;5.83;100.00
30730;BME280;17476;48.458;7.928;2023-11-18T06:51:31;100900.34;;;5.79;100.00
30730;BME280;17476;48.458;7.928;2023-11-18T06:54:01;100903.50;;;5.95;100.00
30730;BME280;17476;48.458;7.928;2023-11-18T06:56:34;100896.50;;;6.09;100.00
30730;BME280;17476;48.458;7.928;2023-11-18T06:59:02;100898.31;;;6.19;100.00
30730;BME280;17476;48.458;7.928;2023-11-18T07:01:29;100904.88;;;6.36;100.00
30730;BME280;17476;48.458;7.928;2023-11-18T07:03:56;100917.28;;;6.33;100.00
30730;BME280;17476;48.458;7.928;2023-11-18T07:06:22;100907.66;;;6.22;100.00
30730;BME280;17476;48.458;7.928;2023-11-18T07:08:49;100914.69;;;6.33;100.00
30730;BME280;17476;48.458;7.928;2023-11-18T07:11:15;100915.56;;;6.44;100.00
30730;BME280;17476;48.458;7.928;2023-11-18T07:13:42;100921.72;;;6.54;100.00
30730;BME280;17476;48.458;7.928;2023-11-18T07:16:09;100921.66;;;6.43;100.00
30730;BME280;17476;48.458;7.928;2023-11-18T07:18:35;100912.50;;;6.50;100.00
30730;BME280;17476;48.458;7.928;2023-11-18T07:21:04;100918.84;;;6.46;100.00
30730;BME280;17476;48.458;7.928;2023-11-18T07:23:31;100904.84;;;6.60;100.00
30730;BME280;17476;48.458;7.928;2023-11-18T07:25:57;100913.22;;;6.64;100.00
30730;BME280;17476;48.458;7.928;2023-11-18T07:28:23;100912.31;;;6.65;100.00
30730;BME280;17476;48.458;7.928;2023-11-18T07:30:49;100915.81;;;6.64;100.00
30730;BME280;17476;48.458;7.928;2023-11-18T07:33:19;100917.00;;;6.60;100.00
30730;BME280;17476;48.458;7.928;2023-11-18T07:35:49;100915.38;;;6.70;100.00
30730;BME280;17476;48.458;7.928;2023-11-18T07:38:16;100917.31;;;6.79;100.00
30730;BME280;17476;48.458;7.928;2023-11-18T07:40:42;100911.72;;;6.83;100.00
30730;BME280;17476;48.458;7.928;2023-11-18T07:43:12;100905.50;;;6.86;100.00
30730;BME280;17476;48.458;7.928;2023-11-18T07:45:39;100899.09;;;6.90;100.00
30730;BME280;17476;48.458;7.928;2023-11-18T07:48:06;100896.72;;;6.76;100.00
30730;BME280;17476;48.458;7.928;2023-11-18T07:50:40;100899.31;;;6.76;100.00
30730;BME280;17476;48.458;7.928;2023-11-18T07:53:10;100904.84;;;6.60;100.00
30730;BME280;17476;48.458;7.928;2023-11-18T07:55:37;100909.16;;;6.48;100.00
30730;BME280;17476;48.458;7.928;2023-11-18T07:58:09;100917.59;;;6.63;100.00
30730;BME280;17476;48.458;7.928;2023-11-18T08:00:42;100920.38;;;6.49;100.00
30730;BME280;17476;48.458;7.928;2023-11-18T08:03:12;100919.22;;;6.18;100.00
30730;BME280;17476;48.458;7.928;2023-11-18T08:05:41;100919.03;;;6.32;100.00
30730;BME280;17476;48.458;7.928;2023-11-18T08:08:14;100919.06;;;6.43;100.00
30730;BME280;17476;48.458;7.928;2023-11-18T08:10:43;100913.16;;;6.41;100.00
30730;BME280;17476;48.458;7.928;2023-11-18T08:13:11;100901.38;;;6.48;100.00
30730;BME280;17476;48.458;7.928;2023-11-18T08:15:42;100884.63;;;6.52;100.00
30730;BME280;17476;48.458;7.928;2023-11-18T08:18:08;100895.28;;;6.61;100.00
30730;BME280;17476;48.458;7.928;2023-11-18T08:20:37;100902.78;;;6.41;100.00
30730;BME280;17476;48.458;7.928;2023-11-18T08:23:03;100886.53;;;6.50;100.00
30730;BME280;17476;48.458;7.928;2023-11-18T08:25:35;100888.09;;;6.64;100.00
30730;BME280;17476;48.458;7.928;2023-11-18T08:28:03;100879.81;;;6.70;100.00
30730;BME280;17476;48.458;7.928;2023-11-18T08:30:30;100877.81;;;6.74;100.00
30730;BME280;17476;48.458;7.928;2023-11-18T08:32:56;100883.16;;;6.95;100.00
30730;BME280;17476;48.458;7.928;2023-11-18T08:35:23;100879.50;;;6.97;100.00
30730;BME280;17476;48.458;7.928;2023-11-18T08:37:50;100884.47;;;6.78;100.00
30730;BME280;17476;48.458;7.928;2023-11-18T08:40:17;100882.69;;;7.01;100.00
30730;BME280;17476;48.458;7.928;2023-11-18T08:42:53;100877.72;;;7.09;100.00
30730;BME280;17476;48.458;7.928;2023-11-18T08:45:24;100886.97;;;7.13;100.00
30730;BME280;17476;48.458;7.928;2023-11-18T08:47:53;100876.88;;;7.31;100.00
30730;BME280;17476;48.458;7.928;2023-11-18T08:50:21;100867.09;;;7.34;100.00
30730;BME280;17476;48.458;7.928;2023-11-18T08:52:50;100871.63;;;7.64;100.00
30730;BME280;17476;48.458;7.928;2023-11-18T08:55:24;100861.97;;;7.44;100.00
30730;BME280;17476;48.458;7.928;2023-11-18T08:58:13;100854.84;;;7.57;100.00
30730;BME280;17476;48.458;7.928;2023-11-18T09:00:52;100844.44;;;7.69;100.00
30730;BME280;17476;48.458;7.928;2023-11-18T09:03:22;100839.97;;;7.59;100.00
30730;BME280;17476;48.458;7.928;2023-11-18T09:05:52;100850.09;;;7.74;100.00
30730;BME280;17476;48.458;7.928;2023-11-18T09:08:36;100854.56;;;7.83;100.00
30730;BME280;17476;48.458;7.928;2023-11-18T09:11:13;100856.94;;;7.86;100.00
30730;BME280;17476;48.458;7.928;2023-11-18T09:13:47;100859.31;;;8.10;100.00
30730;BME280;17476;48.458;7.928;2023-11-18T09:16:15;100859.84;;;8.25;100.00
30730;BME280;17476;48.458;7.928;2023-11-18T09:18:43;100872.88;;;8.25;100.00
30730;BME280;17476;48.458;7.928;2023-11-18T09:21:13;100875.91;;;8.41;100.00
30730;BME280;17476;48.458;7.928;2023-11-18T09:23:45;100862.50;;;8.45;100.00
30730;BME280;17476;48.458;7.928;2023-11-18T09:26:13;100875.34;;;8.37;100.00
30730;BME280;17476;48.458;7.928;2023-11-18T09:28:40;100879.03;;;8.24;100.00
30730;BME280;17476;48.458;7.928;2023-11-18T09:31:07;100871.22;;;8.24;100.00
30730;BME280;17476;48.458;7.928;2023-11-18T09:33:38;100868.81;;;8.32;100.00
30730;BME280;17476;48.458;7.928;2023-11-18T09:36:09;100876.44;;;8.24;100.00
30730;BME280;17476;48.458;7.928;2023-11-18T09:38:39;100875.47;;;8.25;100.00
30730;BME280;17476;48.458;7.928;2023-11-18T09:41:09;100861.81;;;8.32;100.00
30730;BME280;17476;48.458;7.928;2023-11-18T09:43:44;100874.16;;;8.30;100.00
30730;BME280;17476;48.458;7.928;2023-11-18T09:46:17;100880.31;;;8.29;100.00
30730;BME280;17476;48.458;7.928;2023-11-18T09:51:38;100885.97;;;8.13;100.00
30730;BME280;17476;48.458;7.928;2023-11-18T09:54:45;100894.81;;;8.22;100.00
30730;BME280;17476;48.458;7.928;2023-11-18T10:00:01;100890.75;;;8.29;100.00
30730;BME280;17476;48.458;7.928;2023-11-18T10:02:49;100892.06;;;8.24;100.00
30730;BME280;17476;48.458;7.928;2023-11-18T10:05:16;100898.38;;;8.21;100.00
30730;BME280;17476;48.458;7.928;2023-11-18T10:07:47;100900.75;;;8.45;100.00
30730;BME280;17476;48.458;7.928;2023-11-18T10:10:17;100902.00;;;8.41;100.00
30730;BME280;17476;48.458;7.928;2023-11-18T10:12:47;100902.34;;;8.36;100.00
30730;BME280;17476;48.458;7.928;2023-11-18T10:15:24;100897.75;;;8.29;100.00
30730;BME280;17476;48.458;7.928;2023-11-18T10:17:52;100896.78;;;8.41;100.00
30730;BME280;17476;48.458;7.928;2023-11-18T10:20:49;100902.09;;;8.39;100.00
30730;BME280;17476;48.458;7.928;2023-11-18T10:23:21;100907.56;;;8.57;100.00
30730;BME280;17476;48.458;7.928;2023-11-18T10:25:53;100893.53;;;8.48;100.00
30730;BME280;17476;48.458;7.928;2023-11-18T10:28:34;100885.56;;;8.50;100.00
30730;BME280;17476;48.458;7.928;2023-11-18T10:31:04;100888.22;;;8.60;100.00
30730;BME280;17476;48.458;7.928;2023-11-18T10:33:40;100895.69;;;8.64;100.00
30730;BME280;17476;48.458;7.928;2023-11-18T10:36:21;100894.16;;;8.83;100.00
30730;BME280;17476;48.458;7.928;2023-11-18T10:38:54;100879.38;;;8.93;100.00
30730;BME280;17476;48.458;7.928;2023-11-18T10:41:21;100881.28;;;8.91;100.00
30730;BME280;17476;48.458;7.928;2023-11-18T10:43:49;100888.44;;;8.89;100.00
30730;BME280;17476;48.458;7.928;2023-11-18T10:46:30;100896.81;;;8.92;100.00
30730;BME280;17476;48.458;7.928;2023-11-18T10:48:57;100888.34;;;8.79;100.00
30730;BME280;17476;48.458;7.928;2023-11-18T10:51:23;100890.91;;;8.90;100.00
30730;BME280;17476;48.458;7.928;2023-11-18T10:53:53;100884.34;;;8.96;100.00
30730;BME280;17476;48.458;7.928;2023-11-18T10:56:22;100894.00;;;9.05;100.00
30730;BME280;17476;48.458;7.928;2023-11-18T10:58:56;100878.13;;;9.18;100.00
30730;BME280;17476;48.458;7.928;2023-11-18T11:01:30;100878.44;;;9.24;100.00
30730;BME280;17476;48.458;7.928;2023-11-18T11:04:00;100884.63;;;9.33;100.00
30730;BME280;17476;48.458;7.928;2023-11-18T11:06:33;100889.38;;;9.18;100.00
30730;BME280;17476;48.458;7.928;2023-11-18T11:08:59;100871.16;;;9.28;100.00
30730;BME280;17476;48.458;7.928;2023-11-18T11:11:35;100865.47;;;9.13;100.00
30730;BME280;17476;48.458;7.928;2023-11-18T11:14:04;100864.78;;;9.11;100.00
30730;BME280;17476;48.458;7.928;2023-11-18T11:16:42;100861.84;;;8.95;100.00
30730;BME280;17476;48.458;7.928;2023-11-18T11:19:26;100845.97;;;8.87;100.00
30730;BME280;17476;48.458;7.928;2023-11-18T11:22:04;100844.75;;;8.81;100.00
30730;BME280;17476;48.458;7.928;2023-11-18T11:24:54;100842.56;;;8.65;100.00
30730;BME280;17476;48.458;7.928;2023-11-18T11:27:32;100835.59;;;8.66;100.00
30730;BME280;17476;48.458;7.928;2023-11-18T11:30:29;100826.94;;;8.65;100.00
30730;BME280;17476;48.458;7.928;2023-11-18T11:35:59;100819.91;;;8.56;100.00
30730;BME280;17476;48.458;7.928;2023-11-18T11:38:28;100808.25;;;8.39;100.00
30730;BME280;17476;48.458;7.928;2023-11-18T11:40:55;100797.22;;;8.47;100.00
30730;BME280;17476;48.458;7.928;2023-11-18T11:43:21;100784.44;;;8.44;100.00
30730;BME280;17476;48.458;7.928;2023-11-18T11:45:51;100791.28;;;8.45;100.00
30730;BME280;17476;48.458;7.928;2023-11-18T11:48:23;100782.41;;;8.47;100.00
30730;BME280;17476;48.458;7.928;2023-11-18T11:54:27;100788.00;;;8.43;100.00
30730;BME280;17476;48.458;7.928;2023-11-18T11:56:57;100778.00;;;8.48;100.00
30730;BME280;17476;48.458;7.928;2023-11-18T11:59:55;100763.88;;;8.51;100.00
30730;BME280;17476;48.458;7.928;2023-11-18T12:02:31;100769.59;;;8.44;100.00
30730;BME280;17476;48.458;7.928;2023-11-18T12:04:58;100771.09;;;8.37;100.00
30730;BME280;17476;48.458;7.928;2023-11-18T12:07:27;100766.41;;;8.62;100.00
30730;BME280;17476;48.458;7.928;2023-11-18T12:09:58;100763.59;;;8.74;100.00
30730;BME280;17476;48.458;7.928;2023-11-18T12:12:25;100758.91;;;8.78;100.00
30730;BME280;17476;48.458;7.928;2023-11-18T12:14:59;100760.69;;;8.68;100.00
30730;BME280;17476;48.458;7.928;2023-11-18T12:20:38;100749.13;;;8.61;100.00
30730;BME280;17476;48.458;7.928;2023-11-18T12:23:08;100750.78;;;8.71;100.00
30730;BME280;17476;48.458;7.928;2023-11-18T12:25:41;100744.53;;;8.84;100.00
30730;BME280;17476;48.458;7.928;2023-11-18T12:28:12;100739.22;;;8.95;100.00
30730;BME280;17476;48.458;7.928;2023-11-18T12:30:45;100738.34;;;8.85;100.00
30730;BME280;17476;48.458;7.928;2023-11-18T12:42:07;100733.78;;;9.17;100.00
30730;BME280;17476;48.458;7.928;2023-11-18T12:47:33;100731.59;;;9.32;100.00
30730;BME280;17476;48.458;7.928;2023-11-18T12:50:08;100723.88;;;9.11;100.00
30730;BME280;17476;48.458;7.928;2023-11-18T12:52:44;100727.97;;;9.14;100.00
30730;BME280;17476;48.458;7.928;2023-11-18T12:55:12;100723.34;;;9.27;100.00
30730;BME280;17476;48.458;7.928;2023-11-18T12:57:48;100715.78;;;9.34;100.00
30730;BME280;17476;48.458;7.928;2023-11-18T13:00:17;100724.31;;;9.45;100.00
30730;BME280;17476;48.458;7.928;2023-11-18T13:02:56;100722.41;;;9.28;100.00
30730;BME280;17476;48.458;7.928;2023-11-18T13:05:23;100715.94;;;9.42;100.00
30730;BME280;17476;48.458;7.928;2023-11-18T13:07:56;100700.00;;;9.25;100.00
30730;BME280;17476;48.458;7.928;2023-11-18T13:10:23;100684.75;;;9.40;100.00
30730;BME280;17476;48.458;7.928;2023-11-18T13:12:50;100683.25;;;9.28;100.00
30730;BME280;17476;48.458;7.928;2023-11-18T13:15:16;100672.50;;;9.41;100.00
30730;BME280;17476;48.458;7.928;2023-11-18T13:18:00;100666.47;;;9.30;100.00
30730;BME280;17476;48.458;7.928;2023-11-18T13:20:26;100663.47;;;9.35;100.00
30730;BME280;17476;48.458;7.928;2023-11-18T13:22:52;100651.63;;;9.50;100.00
30730;BME280;17476;48.458;7.928;2023-11-18T13:25:22;100643.50;;;9.63;100.00
30730;BME280;17476;48.458;7.928;2023-11-18T13:27:49;100640.50;;;9.58;100.00